createdAt,value
2023-02-05T00:02:48.959Z,1.33
2023-02-05T00:05:53.860Z,1.40
2023-02-05T00:08:58.137Z,1.20
2023-02-05T00:12:01.775Z,1.17
2023-02-05T00:15:05.654Z,1.58
2023-02-05T00:18:09.101Z,1.55
2023-02-05T00:21:15.993Z,1.52
2023-02-05T00:24:19.683Z,1.52
2023-02-05T00:27:22.949Z,1.40
2023-02-05T00:30:28.398Z,1.00
2023-02-05T00:33:31.920Z,1.50
2023-02-05T00:36:36.959Z,1.15
2023-02-05T00:39:40.667Z,1.60
2023-02-05T00:42:44.354Z,1.40
2023-02-05T00:45:47.887Z,1.40
2023-02-05T00:48:51.335Z,1.02
2023-02-05T00:51:56.141Z,1.23
2023-02-05T00:54:59.891Z,1.70
2023-02-05T00:58:03.421Z,1.40
2023-02-05T01:01:07.575Z,1.37
2023-02-05T01:04:11.078Z,1.30
2023-02-05T01:07:18.990Z,1.55
2023-02-05T01:10:22.592Z,1.80
2023-02-05T01:13:27.028Z,1.40
2023-02-05T01:16:31.125Z,1.20
2023-02-05T01:19:35.549Z,1.17
2023-02-05T01:22:40.693Z,1.60
2023-02-05T01:25:44.214Z,1.30
2023-02-05T01:28:48.605Z,1.50
2023-02-05T01:31:52.703Z,1.55
2023-02-05T01:34:56.523Z,1.53
2023-02-05T01:38:01.382Z,1.20
2023-02-05T01:41:06.671Z,1.23
2023-02-05T01:44:13.742Z,1.42
2023-02-05T01:47:17.381Z,1.52
2023-02-05T01:50:27.793Z,1.50
2023-02-05T01:53:37.507Z,1.50
2023-02-05T01:56:48.073Z,1.60
2023-02-05T01:59:52.336Z,1.27
2023-02-05T02:02:56.065Z,1.33
2023-02-05T02:05:59.914Z,1.17
2023-02-05T02:09:08.355Z,1.10
2023-02-05T02:12:15.582Z,1.23
2023-02-05T02:15:27.030Z,1.00
2023-02-05T02:18:32.502Z,1.25
2023-02-05T02:22:19.260Z,1.37
2023-02-05T02:26:17.381Z,1.00
2023-02-05T02:29:33.246Z,1.25
2023-02-05T02:32:43.789Z,1.27
2023-02-05T02:35:55.183Z,1.30
2023-02-05T02:39:08.379Z,1.17
2023-02-05T02:42:18.699Z,1.20
2023-02-05T02:45:31.135Z,1.10
2023-02-05T02:48:41.117Z,1.48
2023-02-05T02:51:48.546Z,1.30
2023-02-05T02:54:57.433Z,1.20
2023-02-05T02:58:03.261Z,1.20
2023-02-05T03:01:12.854Z,1.00
2023-02-05T03:04:24.587Z,1.30
2023-02-05T03:07:35.656Z,1.17
2023-02-05T03:10:46.787Z,1.13
2023-02-05T03:13:51.334Z,1.25
2023-02-05T03:17:01.046Z,1.20
2023-02-05T03:20:16.191Z,1.20
2023-02-05T03:23:20.334Z,1.30
2023-02-05T03:26:29.784Z,1.60
2023-02-05T03:29:45.551Z,1.20
2023-02-05T03:33:11.261Z,1.50
2023-02-05T03:36:26.473Z,1.20
2023-02-05T03:39:51.633Z,1.23
2023-02-05T03:43:08.352Z,1.30
2023-02-05T03:46:26.336Z,1.30
2023-02-05T03:49:52.630Z,1.40
2023-02-05T03:53:08.409Z,1.25
2023-02-05T03:56:20.902Z,1.30
2023-02-05T03:59:28.723Z,1.25
2023-02-05T04:02:32.567Z,1.33
2023-02-05T04:05:38.459Z,1.20
2023-02-05T04:08:43.991Z,1.45
2023-02-05T04:11:48.098Z,1.30
2023-02-05T04:14:54.791Z,1.30
2023-02-05T04:17:58.811Z,1.13
2023-02-05T04:21:06.753Z,1.15
2023-02-05T04:24:14.420Z,1.27
2023-02-05T04:27:18.618Z,1.30
2023-02-05T04:30:22.854Z,1.70
2023-02-05T04:33:26.257Z,1.50
2023-02-05T04:36:31.349Z,1.45
2023-02-05T04:39:35.375Z,1.60
2023-02-05T04:42:39.151Z,1.58
2023-02-05T04:45:42.683Z,1.60
2023-02-05T04:48:46.753Z,1.50
2023-02-05T04:51:51.528Z,1.40
2023-02-05T04:54:55.341Z,1.15
2023-02-05T04:57:59.184Z,1.30
2023-02-05T05:01:03.312Z,1.38
2023-02-05T05:04:06.772Z,1.48
2023-02-05T05:07:11.976Z,1.55
2023-02-05T05:10:15.335Z,1.27
2023-02-05T05:13:19.127Z,1.45
2023-02-05T05:16:22.637Z,1.70
2023-02-05T05:19:26.651Z,1.42
2023-02-05T05:22:31.443Z,1.50
2023-02-05T05:25:35.421Z,1.30
2023-02-05T05:28:39.372Z,1.50
2023-02-05T05:31:44.003Z,1.70
2023-02-05T05:34:47.181Z,1.40
2023-02-05T05:37:52.611Z,1.40
2023-02-05T05:41:13.624Z,1.50
2023-02-05T05:44:17.357Z,1.65
2023-02-05T05:47:20.946Z,1.58
2023-02-05T05:50:24.525Z,1.60
2023-02-05T05:53:29.730Z,1.48
2023-02-05T05:56:33.693Z,1.50
2023-02-05T05:59:37.508Z,1.52
2023-02-05T06:02:44.255Z,1.50
2023-02-05T06:05:47.576Z,1.52
2023-02-05T06:08:52.487Z,1.42
2023-02-05T06:11:55.831Z,1.60
2023-02-05T06:14:59.272Z,1.95
2023-02-05T06:18:02.667Z,1.60
2023-02-05T06:21:06.758Z,1.63
2023-02-05T06:24:11.616Z,1.70
2023-02-05T06:27:15.174Z,1.50
2023-02-05T06:30:18.583Z,1.80
2023-02-05T06:33:22.426Z,1.67
2023-02-05T06:36:25.972Z,2.00
2023-02-05T06:39:31.238Z,2.00
2023-02-05T06:42:34.930Z,2.17
2023-02-05T06:45:38.646Z,1.88
2023-02-05T06:48:44.974Z,2.20
2023-02-05T06:51:48.456Z,2.00
2023-02-05T06:54:52.997Z,2.23
2023-02-05T06:57:56.478Z,1.80
2023-02-05T07:00:59.854Z,2.20
2023-02-05T07:04:03.461Z,2.10
2023-02-05T07:07:06.757Z,2.23
2023-02-05T07:10:11.985Z,2.03
2023-02-05T07:13:15.213Z,2.20
2023-02-05T07:16:19.433Z,2.30
2023-02-05T07:19:22.750Z,2.00
2023-02-05T07:22:26.579Z,2.20
2023-02-05T07:25:36.251Z,2.50
2023-02-05T07:28:40.464Z,2.15
2023-02-05T07:31:44.163Z,2.50
2023-02-05T07:34:47.709Z,2.65
2023-02-05T07:37:51.003Z,2.33
2023-02-05T07:40:56.130Z,2.20
2023-02-05T07:44:00.921Z,2.63
2023-02-05T07:47:04.866Z,2.42
2023-02-05T07:50:08.648Z,3.00
2023-02-05T07:53:12.151Z,2.30
2023-02-05T07:56:17.662Z,2.53
2023-02-05T07:59:21.234Z,2.60
2023-02-05T08:02:24.524Z,2.67
2023-02-05T08:05:28.428Z,2.90
2023-02-05T08:08:31.758Z,3.00
2023-02-05T08:11:37.147Z,2.97
2023-02-05T08:14:40.524Z,2.40
2023-02-05T08:17:44.336Z,2.63
2023-02-05T08:20:47.579Z,2.97
2023-02-05T08:23:51.471Z,2.67
2023-02-05T08:26:56.117Z,2.70
2023-02-05T08:29:59.754Z,2.45
2023-02-05T08:33:03.286Z,2.53
2023-02-05T08:36:08.089Z,2.60
2023-02-05T08:39:11.288Z,2.73
2023-02-05T08:42:16.272Z,2.78
2023-02-05T08:45:19.964Z,2.97
2023-02-05T08:48:26.437Z,2.80
2023-02-05T08:51:31.298Z,3.20
2023-02-05T08:54:35.465Z,2.92
2023-02-05T08:57:40.998Z,3.15
2023-02-05T09:00:44.803Z,2.92
2023-02-05T09:03:48.187Z,2.70
2023-02-05T09:06:52.607Z,2.77
2023-02-05T09:09:56.055Z,2.70
2023-02-05T09:13:01.082Z,2.80
2023-02-05T09:16:04.403Z,2.58
2023-02-05T09:19:09.286Z,2.70
2023-02-05T09:22:12.481Z,2.23
2023-02-05T09:25:15.919Z,2.47
2023-02-05T09:28:20.976Z,2.10
2023-02-05T09:31:25.319Z,1.95
2023-02-05T09:34:28.549Z,2.08
2023-02-05T09:37:32.076Z,2.00
2023-02-05T09:40:45.739Z,2.22
2023-02-05T09:43:58.492Z,2.65
2023-02-05T09:47:13.216Z,2.30
2023-02-05T09:50:27.637Z,2.20
2023-02-05T09:53:42.138Z,2.10
2023-02-05T09:56:47.939Z,1.90
2023-02-05T09:59:52.833Z,1.90
2023-02-05T10:03:08.826Z,2.00
2023-02-05T10:06:39.976Z,2.00
2023-02-05T10:10:08.388Z,1.85
2023-02-05T10:13:36.885Z,2.05
2023-02-05T10:17:12.996Z,1.90
2023-02-05T10:21:01.809Z,1.70
2023-02-05T10:24:29.669Z,2.00
2023-02-05T10:27:49.760Z,2.37
2023-02-05T10:31:02.928Z,1.70
2023-02-05T10:34:20.100Z,2.00
2023-02-05T10:37:40.465Z,2.20
2023-02-05T10:40:46.661Z,1.88
2023-02-05T10:43:57.032Z,1.80
2023-02-05T10:47:11.164Z,1.70
2023-02-05T10:50:28.602Z,1.85
2023-02-05T10:53:32.998Z,1.80
2023-02-05T10:56:41.014Z,1.90
2023-02-05T10:59:54.732Z,1.80
2023-02-05T11:02:59.803Z,1.83
2023-02-05T11:06:12.080Z,1.70
2023-02-05T11:09:32.907Z,1.90
2023-02-05T11:12:36.300Z,1.92
2023-02-05T11:15:56.794Z,2.00
2023-02-05T11:19:02.241Z,2.10
2023-02-05T11:22:07.439Z,2.15
2023-02-05T11:25:18.346Z,1.70
2023-02-05T11:28:27.799Z,1.63
2023-02-05T11:31:36.703Z,1.50
2023-02-05T11:34:40.530Z,1.80
2023-02-05T11:37:46.442Z,1.50
2023-02-05T11:40:54.543Z,2.00
2023-02-05T11:44:02.164Z,1.80
2023-02-05T11:47:05.996Z,1.67
2023-02-05T11:50:25.526Z,1.90
2023-02-05T11:53:33.940Z,1.60
2023-02-05T11:56:37.187Z,1.52
2023-02-05T11:59:44.603Z,1.40
2023-02-05T12:02:51.962Z,1.30
2023-02-05T12:06:04.551Z,1.77
2023-02-05T12:09:15.397Z,1.45
2023-02-05T12:12:33.410Z,1.65
2023-02-05T12:15:46.173Z,1.48
2023-02-05T12:19:07.737Z,1.70
2023-02-05T12:22:27.767Z,1.50
2023-02-05T12:25:47.797Z,1.70
2023-02-05T12:29:11.115Z,1.60
2023-02-05T12:32:28.679Z,1.50
2023-02-05T12:35:56.667Z,1.60
2023-02-05T12:39:19.022Z,1.58
2023-02-05T12:42:35.294Z,1.50
2023-02-05T12:45:57.516Z,1.65
2023-02-05T12:49:23.690Z,1.63
2023-02-05T12:52:50.413Z,1.50
2023-02-05T12:56:26.033Z,1.58
2023-02-05T12:59:42.222Z,1.27
2023-02-05T13:02:58.629Z,1.27
2023-02-05T13:06:07.196Z,1.30
2023-02-05T13:09:21.827Z,1.30
2023-02-05T13:12:33.371Z,1.20
2023-02-05T13:15:44.633Z,1.20
2023-02-05T13:19:00.364Z,1.60
2023-02-05T13:22:31.955Z,1.30
2023-02-05T13:26:03.631Z,1.27
2023-02-05T13:29:23.576Z,1.40
2023-02-05T13:32:34.360Z,1.50
2023-02-05T13:35:54.436Z,1.30
2023-02-05T13:39:34.616Z,1.50
2023-02-05T13:43:21.950Z,1.20
2023-02-05T13:47:10.381Z,1.30
2023-02-05T13:51:26.876Z,1.23
2023-02-05T13:55:28.446Z,1.08
2023-02-05T13:58:50.461Z,1.08
2023-02-05T14:02:00.416Z,1.30
2023-02-05T14:05:06.425Z,1.35
2023-02-05T14:08:23.696Z,1.08
2023-02-05T14:11:27.933Z,1.13
2023-02-05T14:14:34.912Z,1.25
2023-02-05T14:17:56.569Z,1.30
2023-02-05T14:21:00.356Z,1.30
2023-02-05T14:24:40.019Z,1.20
2023-02-05T14:27:52.250Z,1.40
2023-02-05T14:30:58.895Z,1.10
2023-02-05T14:34:55.670Z,1.30
2023-02-05T14:38:03.789Z,1.20
2023-02-05T14:41:17.846Z,1.33
2023-02-05T14:44:29.375Z,1.50
2023-02-05T14:47:36.792Z,1.33
2023-02-05T14:50:41.695Z,1.40
2023-02-05T14:53:57.374Z,1.48
2023-02-05T14:57:21.985Z,1.38
2023-02-05T15:00:36.257Z,1.10
2023-02-05T15:03:43.291Z,1.67
2023-02-05T15:06:48.784Z,1.30
2023-02-05T15:10:01.188Z,1.30
2023-02-05T15:13:12.865Z,1.23
2023-02-05T15:16:22.951Z,1.30
2023-02-05T15:19:26.604Z,1.27
2023-02-05T15:22:38.465Z,1.40
2023-02-05T15:25:51.447Z,1.40
2023-02-05T15:29:05.665Z,1.30
2023-02-05T15:32:24.360Z,1.00
2023-02-05T15:35:33.891Z,1.40
2023-02-05T15:38:49.359Z,1.23
2023-02-05T15:41:59.500Z,1.00
2023-02-05T15:48:35.756Z,1.30
2023-02-05T15:51:40.414Z,1.58
2023-02-05T15:54:43.849Z,1.38
2023-02-05T15:57:49.878Z,1.25
2023-02-05T16:00:56.520Z,1.20
2023-02-05T16:04:02.178Z,1.60
2023-02-05T16:07:20.534Z,5.00
2023-02-05T16:10:27.216Z,2.50
2023-02-05T16:13:31.562Z,4.70
2023-02-05T16:16:40.690Z,4.17
2023-02-05T16:19:51.208Z,4.88
2023-02-05T16:23:00.139Z,9.10
2023-02-05T16:26:13.510Z,6.15
2023-02-05T16:29:31.601Z,6.90
2023-02-05T16:32:42.498Z,5.63
2023-02-05T16:35:49.970Z,4.60
2023-02-05T16:38:56.737Z,5.22
2023-02-05T16:42:08.668Z,4.90
2023-02-05T16:45:24.058Z,4.35
2023-02-05T16:48:31.820Z,4.63
2023-02-05T16:51:55.103Z,4.00
2023-02-05T16:55:00.005Z,4.60
2023-02-05T16:58:07.378Z,4.70
2023-02-05T17:01:11.771Z,6.30
2023-02-05T17:04:27.619Z,5.53
2023-02-05T17:07:33.964Z,5.78
2023-02-05T17:10:52.481Z,6.25
2023-02-05T17:14:23.674Z,5.05
2023-02-05T17:17:29.838Z,5.63
2023-02-05T17:20:35.113Z,8.27
2023-02-05T17:23:39.842Z,6.57
2023-02-05T17:26:44.456Z,7.50
2023-02-05T17:29:48.176Z,7.03
2023-02-05T17:32:52.538Z,7.07
2023-02-05T17:35:56.134Z,6.83
2023-02-05T17:39:00.998Z,7.25
2023-02-05T17:42:04.603Z,6.80
2023-02-05T17:45:20.144Z,6.25
2023-02-05T17:48:23.320Z,6.10
2023-02-05T17:51:27.727Z,6.63
2023-02-05T17:54:32.254Z,6.55
2023-02-05T17:57:36.697Z,6.40
2023-02-05T18:00:42.311Z,6.30
2023-02-05T18:03:45.999Z,5.97
2023-02-05T18:06:50.538Z,5.87
2023-02-05T18:09:55.564Z,5.85
2023-02-05T18:12:59.532Z,6.38
2023-02-05T18:16:04.004Z,5.93
2023-02-05T18:19:07.316Z,5.82
2023-02-05T18:22:11.428Z,6.13
2023-02-05T18:25:16.402Z,5.90
2023-02-05T18:28:19.874Z,5.25
2023-02-05T18:31:23.256Z,5.53
2023-02-05T18:34:27.668Z,5.65
2023-02-05T18:37:31.105Z,6.43
2023-02-05T18:40:36.498Z,5.60
2023-02-05T18:43:40.261Z,6.72
2023-02-05T18:46:43.778Z,6.35
2023-02-05T18:49:46.949Z,5.97
2023-02-05T18:52:51.290Z,5.23
2023-02-05T18:56:03.610Z,5.38
2023-02-05T18:59:09.827Z,5.60
2023-02-05T19:02:13.641Z,6.45
2023-02-05T19:05:17.213Z,5.70
2023-02-05T19:08:20.414Z,6.20
2023-02-05T19:11:27.402Z,6.25
2023-02-05T19:14:30.922Z,6.78
2023-02-05T19:17:34.614Z,6.90
2023-02-05T19:20:37.775Z,6.50
2023-02-05T19:23:43.250Z,5.70
2023-02-05T19:26:49.617Z,5.82
2023-02-05T19:29:53.168Z,6.53
2023-02-05T19:32:56.375Z,5.95
2023-02-05T19:36:00.726Z,5.85
2023-02-05T19:39:07.620Z,6.60
2023-02-05T19:42:13.770Z,6.57
2023-02-05T19:45:17.290Z,5.65
2023-02-05T19:48:20.926Z,6.20
2023-02-05T19:51:24.192Z,5.65
2023-02-05T19:54:29.719Z,6.27
2023-02-05T19:57:35.293Z,6.20
2023-02-05T20:00:38.732Z,5.70
2023-02-05T20:03:42.618Z,6.32
2023-02-05T20:06:48.092Z,5.30
2023-02-05T20:09:51.318Z,5.93
2023-02-05T20:12:56.350Z,6.40
2023-02-05T20:16:03.705Z,6.10
2023-02-05T20:19:10.557Z,6.35
2023-02-05T20:22:14.181Z,6.93
2023-02-05T20:25:17.764Z,6.43
2023-02-05T20:28:22.552Z,6.65
2023-02-05T20:31:41.296Z,6.15
2023-02-05T20:34:49.948Z,5.82
2023-02-05T20:37:53.494Z,6.53
2023-02-05T20:40:57.440Z,5.93
2023-02-05T20:44:03.119Z,6.82
2023-02-05T20:47:08.955Z,5.85
2023-02-05T20:50:12.851Z,5.97
2023-02-05T20:53:16.163Z,5.93
2023-02-05T20:56:21.394Z,5.77
2023-02-05T20:59:27.051Z,5.95
2023-02-05T21:02:30.484Z,6.40
2023-02-05T21:05:34.036Z,5.60
2023-02-05T21:08:39.621Z,5.90
2023-02-05T21:11:43.974Z,5.33
2023-02-05T21:14:48.768Z,5.97
2023-02-05T21:17:52.138Z,5.60
2023-02-05T21:20:56.073Z,5.93
2023-02-05T21:24:01.893Z,6.03
2023-02-05T21:27:05.443Z,5.70
2023-02-05T21:30:12.972Z,6.30
2023-02-05T21:33:16.539Z,5.43
2023-02-05T21:36:20.422Z,5.70
2023-02-05T21:39:25.473Z,5.78
2023-02-05T21:42:29.092Z,5.40
2023-02-05T21:45:36.160Z,5.88
2023-02-05T21:48:41.646Z,5.00
2023-02-05T21:51:45.202Z,5.10
2023-02-05T21:54:50.741Z,5.22
2023-02-05T21:57:54.792Z,4.97
2023-02-05T22:01:13.282Z,5.15
2023-02-05T22:04:18.269Z,5.47
2023-02-05T22:07:21.517Z,5.32
2023-02-05T22:10:25.130Z,5.18
2023-02-05T22:13:34.057Z,5.40
2023-02-05T22:16:40.143Z,5.57
2023-02-05T22:19:43.556Z,5.20
2023-02-05T22:22:46.968Z,5.22
2023-02-05T22:25:50.231Z,5.40
2023-02-05T22:28:53.897Z,5.60
2023-02-05T22:31:58.608Z,5.15
2023-02-05T22:35:02.071Z,5.30
2023-02-05T22:38:05.781Z,5.20
2023-02-05T22:41:10.853Z,5.35
2023-02-05T22:44:14.588Z,5.10
2023-02-05T22:47:19.363Z,5.57
2023-02-05T22:50:22.603Z,5.75
2023-02-05T22:53:26.036Z,5.45
2023-02-05T22:56:30.023Z,5.22
2023-02-05T22:59:33.436Z,4.63
2023-02-05T23:02:38.147Z,5.45
2023-02-05T23:05:41.684Z,5.53
2023-02-05T23:08:49.775Z,5.40
2023-02-05T23:11:56.391Z,5.68
2023-02-05T23:14:59.646Z,5.73
2023-02-05T23:18:04.757Z,5.28
2023-02-05T23:21:10.370Z,6.15
2023-02-05T23:24:14.020Z,5.68
2023-02-05T23:27:17.379Z,5.72
2023-02-05T23:30:21.096Z,5.90
2023-02-05T23:33:25.850Z,5.63
2023-02-05T23:36:29.384Z,5.80
2023-02-05T23:39:32.928Z,6.00
2023-02-05T23:42:36.533Z,5.80
2023-02-05T23:45:39.805Z,5.17
2023-02-05T23:48:44.671Z,5.60
2023-02-05T23:51:48.566Z,4.95
2023-02-05T23:54:52.487Z,5.00
2023-02-05T23:57:56.452Z,5.50
